createdAt,value
2019-03-20T00:01:07.972Z,106.92
2019-03-20T00:02:16.578Z,107.92
2019-03-20T00:03:23.784Z,96.82
2019-03-20T00:04:31.037Z,75.92
2019-03-20T00:05:38.788Z,74.62
2019-03-20T00:06:45.198Z,80.12
2019-03-20T00:07:53.886Z,89.77
2019-03-20T00:09:01.577Z,75.37
2019-03-20T00:10:12.451Z,93.82
2019-03-20T00:11:19.338Z,103.50
2019-03-20T00:12:26.143Z,85.53
2019-03-20T00:13:36.009Z,88.67
2019-03-20T00:14:42.462Z,81.15
2019-03-20T00:15:50.738Z,83.47
2019-03-20T00:16:57.688Z,77.35
2019-03-20T00:18:04.259Z,91.37
2019-03-20T00:19:11.440Z,57.85
2019-03-20T00:20:19.358Z,55.35
2019-03-20T00:21:27.058Z,53.85
2019-03-20T00:22:35.028Z,77.75
2019-03-20T00:23:41.830Z,74.30
2019-03-20T00:24:48.808Z,38.10
2019-03-20T00:25:57.260Z,46.63
2019-03-20T00:27:06.137Z,63.78
2019-03-20T00:28:12.415Z,58.73
2019-03-20T00:29:19.258Z,38.28
2019-03-20T00:30:25.438Z,32.83
2019-03-20T00:31:31.817Z,37.85
2019-03-20T00:32:40.757Z,33.58
2019-03-20T00:33:47.439Z,34.70
2019-03-20T00:35:00.722Z,30.05
2019-03-20T00:36:02.239Z,35.13
2019-03-20T00:37:10.500Z,31.27
2019-03-20T00:38:17.406Z,29.55
2019-03-20T00:39:23.818Z,24.32
2019-03-20T00:40:30.835Z,28.50
2019-03-20T00:41:37.559Z,26.70
2019-03-20T00:42:43.702Z,22.90
2019-03-20T00:43:51.075Z,23.45
2019-03-20T00:44:58.903Z,18.02
2019-03-20T00:46:04.957Z,18.35
2019-03-20T00:47:12.365Z,18.45
2019-03-20T00:48:19.463Z,17.40
2019-03-20T00:49:26.016Z,19.15
2019-03-20T00:50:34.353Z,23.85
2019-03-20T00:51:41.168Z,22.02
2019-03-20T00:52:47.366Z,20.48
2019-03-20T00:53:54.597Z,27.73
2019-03-20T00:55:00.868Z,26.70
2019-03-20T00:56:28.541Z,22.17
2019-03-20T00:57:35.756Z,22.25
2019-03-20T00:58:42.429Z,23.52
2019-03-20T00:59:49.252Z,25.45
2019-03-20T01:00:56.717Z,31.07
2019-03-20T01:02:03.653Z,28.73
2019-03-20T01:03:11.997Z,26.25
2019-03-20T01:04:17.875Z,28.50
2019-03-20T01:05:24.668Z,28.57
2019-03-20T01:06:32.271Z,24.35
2019-03-20T01:07:38.418Z,29.02
2019-03-20T01:08:46.577Z,26.95
2019-03-20T01:09:54.387Z,29.00
2019-03-20T01:11:00.398Z,28.73
2019-03-20T01:12:09.369Z,28.32
2019-03-20T01:13:15.917Z,27.27
2019-03-20T01:14:22.247Z,27.15
2019-03-20T01:15:29.007Z,27.35
2019-03-20T01:16:36.688Z,21.87
2019-03-20T01:17:43.439Z,26.50
2019-03-20T01:18:50.829Z,33.13
2019-03-20T01:19:58.106Z,26.55
2019-03-20T01:21:04.315Z,26.48
2019-03-20T01:22:10.887Z,30.57
2019-03-20T01:23:18.039Z,29.45
2019-03-20T01:24:24.675Z,24.72
2019-03-20T01:25:35.076Z,28.52
2019-03-20T01:26:42.647Z,28.42
2019-03-20T01:27:49.317Z,23.12
2019-03-20T01:28:55.808Z,26.37
2019-03-20T01:30:02.287Z,25.77
2019-03-20T01:31:08.566Z,25.12
2019-03-20T01:32:15.319Z,26.42
2019-03-20T01:33:21.489Z,28.02
2019-03-20T01:34:48.838Z,25.52
2019-03-20T01:35:56.958Z,26.55
2019-03-20T01:37:03.359Z,24.52
2019-03-20T01:38:10.803Z,31.27
2019-03-20T01:39:17.758Z,21.35
2019-03-20T01:40:23.788Z,27.80
2019-03-20T01:41:37.868Z,23.02
2019-03-20T01:42:40.405Z,20.90
2019-03-20T01:43:46.849Z,23.07
2019-03-20T01:44:53.498Z,24.37
2019-03-20T01:46:00.928Z,25.80
2019-03-20T01:47:07.032Z,32.85
2019-03-20T01:48:13.634Z,33.60
2019-03-20T01:49:21.946Z,38.88
2019-03-20T01:50:28.238Z,35.35
2019-03-20T01:51:35.217Z,34.70
2019-03-20T01:52:42.359Z,44.88
2019-03-20T01:53:48.507Z,43.58
2019-03-20T01:54:57.476Z,67.72
2019-03-20T01:56:04.592Z,83.45
2019-03-20T01:57:11.160Z,43.45
2019-03-20T01:58:17.876Z,39.88
2019-03-20T01:59:25.549Z,60.78
2019-03-20T02:00:32.069Z,51.55
2019-03-20T02:01:38.519Z,61.63
2019-03-20T02:02:46.479Z,58.90
2019-03-20T02:03:53.712Z,61.42
2019-03-20T02:05:01.260Z,63.55
2019-03-20T02:06:07.649Z,58.50
2019-03-20T02:07:16.230Z,45.75
2019-03-20T02:08:23.652Z,49.80
2019-03-20T02:09:30.089Z,43.20
2019-03-20T02:10:36.769Z,49.60
2019-03-20T02:11:43.840Z,50.23
2019-03-20T02:12:51.189Z,47.55
2019-03-20T02:13:58.069Z,49.85
2019-03-20T02:15:08.218Z,52.78
2019-03-20T02:16:16.740Z,44.88
2019-03-20T02:17:24.780Z,46.20
2019-03-20T02:18:31.259Z,45.23
2019-03-20T02:19:37.830Z,40.25
2019-03-20T02:20:44.900Z,42.67
2019-03-20T02:21:50.999Z,35.00
2019-03-20T02:22:58.082Z,27.98
2019-03-20T02:24:05.220Z,36.58
2019-03-20T02:25:12.406Z,31.85
2019-03-20T02:26:20.551Z,30.75
2019-03-20T02:27:28.016Z,29.92
2019-03-20T02:28:36.510Z,30.45
2019-03-20T02:29:45.590Z,34.05
2019-03-20T02:30:52.986Z,28.95
2019-03-20T02:31:59.621Z,30.50
2019-03-20T02:33:08.336Z,34.43
2019-03-20T02:34:14.921Z,27.35
2019-03-20T02:35:22.972Z,28.25
2019-03-20T02:36:29.769Z,29.77
2019-03-20T02:37:35.609Z,28.25
2019-03-20T02:38:42.712Z,28.67
2019-03-20T02:39:49.086Z,26.80
2019-03-20T02:40:55.680Z,30.32
2019-03-20T02:42:03.014Z,25.62
2019-03-20T02:43:10.221Z,30.95
2019-03-20T02:44:17.033Z,30.32
2019-03-20T02:45:24.382Z,31.87
2019-03-20T02:46:30.515Z,39.13
2019-03-20T02:47:37.190Z,32.08
2019-03-20T02:48:44.963Z,37.25
2019-03-20T02:49:53.013Z,37.30
2019-03-20T02:51:00.392Z,27.07
2019-03-20T02:52:08.911Z,32.75
2019-03-20T02:53:16.824Z,36.98
2019-03-20T02:54:26.014Z,30.92
2019-03-20T02:55:32.326Z,31.60
2019-03-20T02:56:38.687Z,27.65
2019-03-20T02:57:45.348Z,29.48
2019-03-20T02:58:52.202Z,42.35
2019-03-20T02:59:59.758Z,45.03
2019-03-20T03:01:06.147Z,39.70
2019-03-20T03:02:13.472Z,41.15
2019-03-20T03:03:20.995Z,36.70
2019-03-20T03:04:28.584Z,32.28
2019-03-20T03:05:34.766Z,34.38
2019-03-20T03:06:42.673Z,29.57
2019-03-20T03:07:49.383Z,41.13
2019-03-20T03:08:55.795Z,32.70
2019-03-20T03:10:22.893Z,32.08
2019-03-20T03:11:29.053Z,25.50
2019-03-20T03:12:34.905Z,24.77
2019-03-20T03:13:42.875Z,26.27
2019-03-20T03:14:49.632Z,27.58
2019-03-20T03:15:57.673Z,23.00
2019-03-20T03:17:05.077Z,21.27
2019-03-20T03:18:11.945Z,19.42
2019-03-20T03:19:18.907Z,18.62
2019-03-20T03:20:27.880Z,19.15
2019-03-20T03:21:34.635Z,21.60
2019-03-20T03:22:42.879Z,17.85
2019-03-20T03:23:50.517Z,24.32
2019-03-20T03:24:56.520Z,23.25
2019-03-20T03:26:04.211Z,19.40
2019-03-20T03:27:11.628Z,19.05
2019-03-20T03:28:18.294Z,20.97
2019-03-20T03:29:25.296Z,18.57
2019-03-20T03:30:31.539Z,19.57
2019-03-20T03:31:38.119Z,17.55
2019-03-20T03:32:46.342Z,20.55
2019-03-20T03:33:52.735Z,20.62
2019-03-20T03:35:00.939Z,22.00
2019-03-20T03:36:20.510Z,21.25
2019-03-20T03:37:17.728Z,19.57
2019-03-20T03:38:24.768Z,19.52
2019-03-20T03:39:32.251Z,22.90
2019-03-20T03:40:39.159Z,18.98
2019-03-20T03:41:46.063Z,19.65
2019-03-20T03:42:54.940Z,22.30
2019-03-20T03:44:01.101Z,19.25
2019-03-20T03:45:11.571Z,19.65
2019-03-20T03:46:18.809Z,20.15
2019-03-20T03:47:25.862Z,19.32
2019-03-20T03:48:32.738Z,16.90
2019-03-20T03:49:39.661Z,22.98
2019-03-20T03:50:48.373Z,20.88
2019-03-20T03:51:55.968Z,20.52
2019-03-20T03:53:04.695Z,19.80
2019-03-20T03:54:11.818Z,21.62
2019-03-20T03:55:18.532Z,20.60
2019-03-20T03:56:25.841Z,18.70
2019-03-20T03:57:33.634Z,23.00
2019-03-20T03:58:40.092Z,24.25
2019-03-20T03:59:46.187Z,24.25
2019-03-20T04:00:52.130Z,23.75
2019-03-20T04:01:58.843Z,25.80
2019-03-20T04:03:05.120Z,23.35
2019-03-20T04:04:11.832Z,25.25
2019-03-20T04:05:19.568Z,23.90
2019-03-20T04:06:35.423Z,22.42
2019-03-20T04:07:34.202Z,25.52
2019-03-20T04:08:42.592Z,25.88
2019-03-20T04:09:49.500Z,25.32
2019-03-20T04:10:56.868Z,27.32
2019-03-20T04:12:03.189Z,22.70
2019-03-20T04:13:09.991Z,24.67
2019-03-20T04:14:17.791Z,26.15
2019-03-20T04:15:24.237Z,27.42
2019-03-20T04:16:32.457Z,25.68
2019-03-20T04:17:39.583Z,23.70
2019-03-20T04:18:46.197Z,29.12
2019-03-20T04:19:52.780Z,29.15
2019-03-20T04:20:59.209Z,27.30
2019-03-20T04:22:06.042Z,27.30
2019-03-20T04:23:12.803Z,21.42
2019-03-20T04:24:19.089Z,21.90
2019-03-20T04:25:26.086Z,24.00
2019-03-20T04:26:32.289Z,23.73
2019-03-20T04:27:38.770Z,25.70
2019-03-20T04:28:45.548Z,23.87
2019-03-20T04:29:54.046Z,23.57
2019-03-20T04:31:00.396Z,25.90
2019-03-20T04:32:07.387Z,23.30
2019-03-20T04:33:13.537Z,22.70
2019-03-20T04:34:19.910Z,30.40
2019-03-20T04:35:26.348Z,28.83
2019-03-20T04:36:34.366Z,24.70
2019-03-20T04:37:41.728Z,24.23
2019-03-20T04:38:48.836Z,25.88
2019-03-20T04:39:56.179Z,26.57
2019-03-20T04:41:04.911Z,30.50
2019-03-20T04:42:11.870Z,27.73
2019-03-20T04:43:18.485Z,34.78
2019-03-20T04:44:47.940Z,36.98
2019-03-20T04:45:55.407Z,42.88
2019-03-20T04:47:04.059Z,47.48
2019-03-20T04:48:10.967Z,49.42
2019-03-20T04:49:19.448Z,54.33
2019-03-20T04:50:26.674Z,64.10
2019-03-20T04:51:33.788Z,76.72
2019-03-20T04:52:40.059Z,64.47
2019-03-20T04:53:46.809Z,63.42
2019-03-20T04:54:55.257Z,92.27
2019-03-20T04:56:01.698Z,107.58
2019-03-20T04:57:09.538Z,101.85
2019-03-20T04:58:17.188Z,100.85
2019-03-20T04:59:24.558Z,94.70
2019-03-20T05:00:31.915Z,82.55
2019-03-20T05:01:37.858Z,93.35
2019-03-20T05:02:44.478Z,91.30
2019-03-20T05:03:51.708Z,96.78
2019-03-20T05:04:58.235Z,104.58
2019-03-20T05:06:04.617Z,103.05
2019-03-20T05:07:11.348Z,105.27
2019-03-20T05:08:18.938Z,94.70
2019-03-20T05:09:25.798Z,89.52
2019-03-20T05:10:32.119Z,106.92
2019-03-20T05:11:38.869Z,124.47
2019-03-20T05:12:46.110Z,118.50
2019-03-20T05:13:52.798Z,100.35
2019-03-20T05:14:59.228Z,98.42
2019-03-20T05:16:06.149Z,89.85
2019-03-20T05:17:12.392Z,88.97
2019-03-20T05:18:19.279Z,90.20
2019-03-20T05:19:26.118Z,90.28
2019-03-20T05:20:32.309Z,90.12
2019-03-20T05:21:39.670Z,93.92
2019-03-20T05:22:47.567Z,92.25
2019-03-20T05:23:54.607Z,81.75
2019-03-20T05:25:02.265Z,89.90
2019-03-20T05:26:08.938Z,83.17
2019-03-20T05:27:15.997Z,82.22
2019-03-20T05:28:23.758Z,87.47
2019-03-20T05:29:30.137Z,81.08
2019-03-20T05:30:37.027Z,94.85
2019-03-20T05:31:44.587Z,85.32
2019-03-20T05:32:50.858Z,82.42
2019-03-20T05:33:58.057Z,88.12
2019-03-20T05:35:05.325Z,90.55
2019-03-20T05:36:12.518Z,115.92
2019-03-20T05:37:20.118Z,133.63
2019-03-20T05:38:26.053Z,114.77
2019-03-20T05:39:33.168Z,119.33
2019-03-20T05:40:40.335Z,123.40
2019-03-20T05:41:48.798Z,170.43
2019-03-20T05:42:56.906Z,162.62
2019-03-20T05:44:03.390Z,159.43
2019-03-20T05:45:19.517Z,165.47
2019-03-20T05:46:26.568Z,138.62
2019-03-20T05:47:34.725Z,112.88
2019-03-20T05:48:41.744Z,84.92
2019-03-20T05:49:50.108Z,94.10
2019-03-20T05:50:57.114Z,100.02
2019-03-20T05:52:05.165Z,100.78
2019-03-20T05:53:12.167Z,97.60
2019-03-20T05:54:18.829Z,99.85
2019-03-20T05:55:26.670Z,109.03
2019-03-20T05:56:34.566Z,118.85
2019-03-20T05:57:40.797Z,117.40
2019-03-20T05:58:47.525Z,119.28
2019-03-20T05:59:55.350Z,107.17
2019-03-20T06:01:01.799Z,106.50
2019-03-20T06:02:08.772Z,121.62
2019-03-20T06:03:17.559Z,116.08
2019-03-20T06:04:25.018Z,116.65
2019-03-20T06:05:33.778Z,121.77
2019-03-20T06:06:40.479Z,114.65
2019-03-20T06:07:49.020Z,124.15
2019-03-20T06:08:56.287Z,117.08
2019-03-20T06:10:03.318Z,122.37
2019-03-20T06:11:10.319Z,118.72
2019-03-20T06:12:19.091Z,120.10
2019-03-20T06:13:27.308Z,127.40
2019-03-20T06:14:35.525Z,129.75
2019-03-20T06:15:44.417Z,120.65
2019-03-20T06:16:50.966Z,129.27
2019-03-20T06:17:59.030Z,129.95
2019-03-20T06:19:06.421Z,142.55
2019-03-20T06:20:14.535Z,128.80
2019-03-20T06:21:21.000Z,129.80
2019-03-20T06:22:29.080Z,134.72
2019-03-20T06:23:36.309Z,147.10
2019-03-20T06:24:44.049Z,163.82
2019-03-20T06:25:51.435Z,149.85
2019-03-20T06:27:03.453Z,149.87
2019-03-20T06:28:11.519Z,148.60
2019-03-20T06:29:20.002Z,149.60
2019-03-20T06:30:27.539Z,138.28
2019-03-20T06:31:34.249Z,82.27
2019-03-20T06:32:40.679Z,96.07
2019-03-20T06:33:47.401Z,48.83
2019-03-20T06:34:56.290Z,58.07
2019-03-20T06:36:03.899Z,50.93
2019-03-20T06:37:12.999Z,41.40
2019-03-20T06:38:19.395Z,43.47
2019-03-20T06:39:26.760Z,42.20
2019-03-20T06:40:33.570Z,37.93
2019-03-20T06:41:39.861Z,41.10
2019-03-20T06:42:46.526Z,30.10
2019-03-20T06:43:53.429Z,25.07
2019-03-20T06:45:01.779Z,20.07
2019-03-20T06:46:08.360Z,19.63
2019-03-20T06:47:17.959Z,23.50
2019-03-20T06:48:26.149Z,22.23
2019-03-20T06:49:33.531Z,23.17
2019-03-20T06:50:40.201Z,17.53
2019-03-20T06:51:46.897Z,20.60
2019-03-20T06:52:54.581Z,14.63
2019-03-20T06:54:03.054Z,17.47
2019-03-20T06:55:11.077Z,12.97
2019-03-20T06:56:24.683Z,17.37
2019-03-20T06:57:31.851Z,14.10
2019-03-20T06:58:40.179Z,17.93
2019-03-20T07:00:14.129Z,18.27
2019-03-20T07:02:43.802Z,14.53
2019-03-20T07:04:09.810Z,14.18
2019-03-20T07:05:38.577Z,16.95
2019-03-20T07:06:55.410Z,13.08
2019-03-20T07:08:02.773Z,16.20
2019-03-20T07:09:30.611Z,18.25
2019-03-20T07:11:12.583Z,16.40
2019-03-20T07:12:21.643Z,22.63
2019-03-20T07:13:29.492Z,15.00
2019-03-20T07:14:35.960Z,14.50
2019-03-20T07:15:44.361Z,16.20
2019-03-20T07:16:51.868Z,14.97
2019-03-20T07:18:00.080Z,16.33
2019-03-20T07:19:07.805Z,22.33
2019-03-20T07:20:19.268Z,18.23
2019-03-20T07:21:32.561Z,17.57
2019-03-20T07:22:43.927Z,22.17
2019-03-20T07:23:54.122Z,17.87
2019-03-20T07:25:10.061Z,24.33
2019-03-20T07:26:16.520Z,29.30
2019-03-20T07:27:24.542Z,27.70
2019-03-20T07:28:31.402Z,27.17
2019-03-20T07:29:37.882Z,22.13
2019-03-20T07:30:46.092Z,20.77
2019-03-20T07:31:53.441Z,21.67
2019-03-20T07:33:01.106Z,20.27
2019-03-20T07:34:07.778Z,30.03
2019-03-20T07:35:15.127Z,37.03
2019-03-20T07:36:21.383Z,23.47
2019-03-20T07:37:28.042Z,21.60
2019-03-20T07:38:34.967Z,18.83
2019-03-20T07:39:42.131Z,26.40
2019-03-20T07:40:49.051Z,35.43
2019-03-20T07:41:55.899Z,22.80
2019-03-20T07:43:08.658Z,29.93
2019-03-20T07:44:12.831Z,74.73
2019-03-20T07:45:19.419Z,43.03
2019-03-20T07:46:27.288Z,35.93
2019-03-20T07:47:34.459Z,40.03
2019-03-20T07:48:40.798Z,41.00
2019-03-20T07:49:48.031Z,32.73
2019-03-20T07:50:55.120Z,21.67
2019-03-20T07:52:01.335Z,30.17
2019-03-20T07:53:09.401Z,38.40
2019-03-20T07:54:16.672Z,22.15
2019-03-20T07:55:24.903Z,19.12
2019-03-20T07:56:31.440Z,31.93
2019-03-20T07:57:38.568Z,27.13
2019-03-20T07:58:50.091Z,35.83
2019-03-20T07:59:58.681Z,33.70
2019-03-20T08:01:05.532Z,34.80
2019-03-20T08:02:12.488Z,41.30
2019-03-20T08:03:20.957Z,30.80
2019-03-20T08:04:27.769Z,26.93
2019-03-20T08:05:34.858Z,36.60
2019-03-20T08:06:42.638Z,24.00
2019-03-20T08:07:49.788Z,28.60
2019-03-20T08:08:56.437Z,26.60
2019-03-20T08:10:03.175Z,21.62
2019-03-20T08:11:10.488Z,28.12
2019-03-20T08:12:19.007Z,19.70
2019-03-20T08:13:26.243Z,28.15
2019-03-20T08:14:32.734Z,40.50
2019-03-20T08:15:39.890Z,27.58
2019-03-20T08:16:51.005Z,34.78
2019-03-20T08:17:58.678Z,44.25
2019-03-20T08:19:08.048Z,30.65
2019-03-20T08:20:22.528Z,14.47
2019-03-20T08:21:28.827Z,19.75
2019-03-20T08:22:35.748Z,21.50
2019-03-20T08:23:43.030Z,20.17
2019-03-20T08:24:49.742Z,18.73
2019-03-20T08:25:56.531Z,21.02
2019-03-20T08:27:03.727Z,24.47
2019-03-20T08:28:10.548Z,22.85
2019-03-20T08:29:17.060Z,26.15
2019-03-20T08:30:25.691Z,20.75
2019-03-20T08:31:33.239Z,19.52
2019-03-20T08:32:39.216Z,23.35
2019-03-20T08:33:45.397Z,23.40
2019-03-20T08:34:52.993Z,19.40
2019-03-20T08:35:59.211Z,17.12
2019-03-20T08:37:05.488Z,20.65
2019-03-20T08:38:18.212Z,16.77
2019-03-20T08:39:22.674Z,26.82
2019-03-20T08:40:29.631Z,24.00
2019-03-20T08:41:36.462Z,20.70
2019-03-20T08:42:43.819Z,19.77
2019-03-20T08:43:50.284Z,19.30
2019-03-20T08:44:57.640Z,13.03
2019-03-20T08:46:05.163Z,15.75
2019-03-20T08:47:12.119Z,20.75
2019-03-20T08:48:18.746Z,20.62
2019-03-20T08:49:25.318Z,13.98
2019-03-20T08:50:31.661Z,17.27
2019-03-20T08:51:38.711Z,14.20
2019-03-20T08:52:45.532Z,13.38
2019-03-20T08:53:52.607Z,20.32
2019-03-20T08:55:02.291Z,50.78
2019-03-20T08:56:08.918Z,39.75
2019-03-20T08:57:15.825Z,14.03
2019-03-20T08:58:22.538Z,18.07
2019-03-20T08:59:28.948Z,15.88
2019-03-20T09:00:35.459Z,13.28
2019-03-20T09:01:43.058Z,24.23
2019-03-20T09:02:51.288Z,14.60
2019-03-20T09:03:58.173Z,8.55
2019-03-20T09:05:07.932Z,9.10
2019-03-20T09:06:14.690Z,18.55
2019-03-20T09:07:22.500Z,13.10
2019-03-20T09:08:29.911Z,13.45
2019-03-20T09:09:37.080Z,20.08
2019-03-20T09:10:43.681Z,11.63
2019-03-20T09:11:50.048Z,13.08
2019-03-20T09:12:56.665Z,6.95
2019-03-20T09:14:02.867Z,7.03
2019-03-20T09:15:12.899Z,10.40
2019-03-20T09:16:20.749Z,9.40
2019-03-20T09:17:26.790Z,10.08
2019-03-20T09:18:33.729Z,10.38
2019-03-20T09:19:40.464Z,19.67
2019-03-20T09:20:47.102Z,14.75
2019-03-20T09:21:54.673Z,12.55
2019-03-20T09:23:00.923Z,8.90
2019-03-20T09:24:08.519Z,13.53
2019-03-20T09:25:18.864Z,7.53
2019-03-20T09:26:26.554Z,9.13
2019-03-20T09:27:32.633Z,6.27
2019-03-20T09:28:38.919Z,8.78
2019-03-20T09:29:44.956Z,8.55
2019-03-20T09:30:52.563Z,9.37
2019-03-20T09:32:00.032Z,9.85
2019-03-20T09:33:05.943Z,11.12
2019-03-20T09:34:13.651Z,9.03
2019-03-20T09:35:19.974Z,10.33
2019-03-20T09:36:27.090Z,6.67
2019-03-20T09:37:34.892Z,7.17
2019-03-20T09:38:43.705Z,12.33
2019-03-20T09:39:51.202Z,7.17
2019-03-20T09:40:58.730Z,10.40
2019-03-20T09:42:05.652Z,12.18
2019-03-20T09:43:14.290Z,8.73
2019-03-20T09:44:21.842Z,11.33
2019-03-20T09:45:28.593Z,15.23
2019-03-20T09:46:35.053Z,17.33
2019-03-20T09:47:41.153Z,18.27
2019-03-20T09:48:47.854Z,19.57
2019-03-20T09:49:57.145Z,24.80
2019-03-20T09:51:03.563Z,12.53
2019-03-20T09:52:09.696Z,19.10
2019-03-20T09:53:15.803Z,21.80
2019-03-20T09:54:22.925Z,14.07
2019-03-20T09:55:29.003Z,10.17
2019-03-20T09:56:35.353Z,16.50
2019-03-20T09:57:42.566Z,20.52
2019-03-20T09:58:50.462Z,9.07
2019-03-20T09:59:56.892Z,9.13
2019-03-20T10:01:03.995Z,8.73
2019-03-20T10:02:11.475Z,10.90
2019-03-20T10:03:20.533Z,14.90
2019-03-20T10:04:29.095Z,10.20
2019-03-20T10:05:35.392Z,15.20
2019-03-20T10:06:43.333Z,9.00
2019-03-20T10:07:49.618Z,25.13
2019-03-20T10:08:55.852Z,16.23
2019-03-20T10:10:01.927Z,10.27
2019-03-20T10:11:08.080Z,13.60
2019-03-20T10:12:14.453Z,10.80
2019-03-20T10:13:21.992Z,7.73
2019-03-20T10:14:28.214Z,9.63
2019-03-20T10:15:34.340Z,7.47
2019-03-20T10:16:41.203Z,9.83
2019-03-20T10:17:47.841Z,11.37
2019-03-20T10:18:55.912Z,12.17
2019-03-20T10:20:01.902Z,9.97
2019-03-20T10:21:08.148Z,9.80
2019-03-20T10:22:15.201Z,12.20
2019-03-20T10:23:21.853Z,12.10
2019-03-20T10:24:28.349Z,11.87
2019-03-20T10:25:44.185Z,11.13
2019-03-20T10:26:45.312Z,10.83
2019-03-20T10:27:52.050Z,19.33
2019-03-20T10:28:58.927Z,21.13
2019-03-20T10:30:17.142Z,14.17
2019-03-20T10:31:23.525Z,16.13
2019-03-20T10:32:29.897Z,13.33
2019-03-20T10:33:36.370Z,9.47
2019-03-20T10:34:43.296Z,11.63
2019-03-20T10:35:52.035Z,14.87
2019-03-20T10:36:59.579Z,10.80
2019-03-20T10:38:05.789Z,9.30
2019-03-20T10:39:11.836Z,11.97
2019-03-20T10:40:26.147Z,7.50
2019-03-20T10:41:32.379Z,14.97
2019-03-20T10:42:38.890Z,8.17
2019-03-20T10:43:44.933Z,12.07
2019-03-20T10:44:52.713Z,8.43
2019-03-20T10:45:58.932Z,12.83
2019-03-20T10:47:05.354Z,14.30
2019-03-20T10:48:11.393Z,11.77
2019-03-20T10:49:17.603Z,9.67
2019-03-20T10:50:30.772Z,12.87
2019-03-20T10:51:39.549Z,8.83
2019-03-20T10:52:47.775Z,11.77
2019-03-20T10:53:54.092Z,9.40
2019-03-20T10:55:00.485Z,9.53
2019-03-20T10:56:07.590Z,11.10
2019-03-20T10:57:14.437Z,7.10
2019-03-20T10:58:23.036Z,12.93
2019-03-20T10:59:29.083Z,8.03
2019-03-20T11:00:35.854Z,10.17
2019-03-20T11:01:43.001Z,12.17
2019-03-20T11:02:49.002Z,14.23
2019-03-20T11:03:55.318Z,13.93
2019-03-20T11:05:01.273Z,15.17
2019-03-20T11:06:07.905Z,11.57
2019-03-20T11:07:15.531Z,14.87
2019-03-20T11:08:21.555Z,13.40
2019-03-20T11:09:27.677Z,8.77
2019-03-20T11:10:35.233Z,8.60
2019-03-20T11:11:41.524Z,6.20
2019-03-20T11:12:48.604Z,10.10
2019-03-20T11:13:54.859Z,4.67
2019-03-20T11:15:00.891Z,59.67
2019-03-20T11:16:07.095Z,25.03
2019-03-20T11:17:13.338Z,25.20
2019-03-20T11:18:20.904Z,19.90
2019-03-20T11:19:27.314Z,8.30
2019-03-20T11:20:33.627Z,14.67
2019-03-20T11:21:40.592Z,16.60
2019-03-20T11:22:47.584Z,17.80
2019-03-20T11:23:54.317Z,13.83
2019-03-20T11:25:01.287Z,15.77
2019-03-20T11:26:07.535Z,8.80
2019-03-20T11:27:13.644Z,8.63
2019-03-20T11:28:19.984Z,6.40
2019-03-20T11:29:26.475Z,9.63
2019-03-20T11:30:34.401Z,6.90
2019-03-20T11:31:40.834Z,8.60
2019-03-20T11:32:47.605Z,12.27
2019-03-20T11:33:54.512Z,10.47
2019-03-20T11:35:00.742Z,12.43
2019-03-20T11:36:07.384Z,9.87
2019-03-20T11:37:13.876Z,12.97
2019-03-20T11:38:20.152Z,15.83
2019-03-20T11:39:29.935Z,10.40
2019-03-20T11:40:37.549Z,17.50
2019-03-20T11:43:03.895Z,19.30
2019-03-20T11:44:09.790Z,18.60
2019-03-20T11:45:16.295Z,10.07
2019-03-20T11:46:22.753Z,21.53
2019-03-20T11:47:28.996Z,16.07
2019-03-20T11:48:35.105Z,14.50
2019-03-20T11:49:41.475Z,10.30
2019-03-20T11:50:47.826Z,12.93
2019-03-20T11:51:55.235Z,10.17
2019-03-20T11:53:02.156Z,10.53
2019-03-20T11:54:11.495Z,15.27
2019-03-20T11:55:17.545Z,15.30
2019-03-20T11:56:24.905Z,22.63
2019-03-20T11:57:32.693Z,15.07
2019-03-20T11:58:39.276Z,14.33
2019-03-20T11:59:45.386Z,12.00
2019-03-20T12:00:52.565Z,14.93
2019-03-20T12:02:02.412Z,14.00
2019-03-20T12:03:10.256Z,13.27
2019-03-20T12:04:17.665Z,14.57
2019-03-20T12:05:24.109Z,14.40
2019-03-20T12:06:31.216Z,14.03
2019-03-20T12:07:37.682Z,11.13
2019-03-20T12:08:43.722Z,16.73
2019-03-20T12:09:50.396Z,12.60
2019-03-20T12:10:58.607Z,12.53
2019-03-20T12:12:05.130Z,14.93
2019-03-20T12:13:13.292Z,11.30
2019-03-20T12:14:19.507Z,13.23
2019-03-20T12:15:25.654Z,12.10
2019-03-20T12:16:32.257Z,11.40
2019-03-20T12:17:40.346Z,15.70
2019-03-20T12:18:46.803Z,10.50
2019-03-20T12:19:54.016Z,15.40
2019-03-20T12:21:00.285Z,12.10
2019-03-20T12:22:07.926Z,15.37
2019-03-20T12:23:14.827Z,13.23
2019-03-20T12:24:21.196Z,11.67
2019-03-20T12:25:32.808Z,13.67
2019-03-20T12:26:39.203Z,11.07
2019-03-20T12:27:45.599Z,19.37
2019-03-20T12:28:52.355Z,13.17
2019-03-20T12:29:58.909Z,11.67
2019-03-20T12:31:06.797Z,11.60
2019-03-20T12:32:13.385Z,12.00
2019-03-20T12:33:19.929Z,11.07
2019-03-20T12:34:25.934Z,10.37
2019-03-20T12:35:44.291Z,10.23
2019-03-20T12:36:50.904Z,10.33
2019-03-20T12:38:17.907Z,11.10
2019-03-20T12:39:24.244Z,10.60
2019-03-20T12:40:34.136Z,9.27
2019-03-20T12:41:40.104Z,11.27
2019-03-20T12:42:47.898Z,9.60
2019-03-20T12:43:54.337Z,12.20
2019-03-20T12:45:00.560Z,10.40
2019-03-20T12:46:07.197Z,10.53
2019-03-20T12:47:13.737Z,9.70
2019-03-20T12:48:21.056Z,10.83
2019-03-20T12:49:27.525Z,10.37
2019-03-20T12:50:33.639Z,14.17
2019-03-20T12:51:40.517Z,14.33
2019-03-20T12:52:48.135Z,9.40
2019-03-20T12:53:54.388Z,8.73
2019-03-20T12:55:03.132Z,8.10
2019-03-20T12:56:09.247Z,7.53
2019-03-20T12:57:15.539Z,9.80
2019-03-20T12:58:24.021Z,8.27
2019-03-20T12:59:30.489Z,9.07
2019-03-20T13:00:37.034Z,7.57
2019-03-20T13:01:44.028Z,11.43
2019-03-20T13:02:50.688Z,16.23
2019-03-20T13:03:57.798Z,10.60
2019-03-20T13:05:06.468Z,6.80
2019-03-20T13:06:13.555Z,15.67
2019-03-20T13:07:20.406Z,16.23
2019-03-20T13:08:29.147Z,10.57
2019-03-20T13:09:35.483Z,10.37
2019-03-20T13:10:43.427Z,8.90
2019-03-20T13:11:51.759Z,6.70
2019-03-20T13:12:59.664Z,8.73
2019-03-20T13:14:05.695Z,11.97
2019-03-20T13:15:23.205Z,8.70
2019-03-20T13:16:29.518Z,8.20
2019-03-20T13:17:35.977Z,8.77
2019-03-20T13:18:42.166Z,7.70
2019-03-20T13:19:48.519Z,8.10
2019-03-20T13:20:57.434Z,10.87
2019-03-20T13:22:03.482Z,7.40
2019-03-20T13:23:20.680Z,6.63
2019-03-20T13:24:27.369Z,8.73
2019-03-20T13:25:33.685Z,9.50
2019-03-20T13:26:40.045Z,29.63
2019-03-20T13:27:46.023Z,42.47
2019-03-20T13:28:52.359Z,28.73
2019-03-20T13:30:01.278Z,24.10
2019-03-20T13:31:15.270Z,14.63
2019-03-20T13:32:21.756Z,12.17
2019-03-20T13:33:27.650Z,10.97
2019-03-20T13:34:33.959Z,9.43
2019-03-20T13:35:40.427Z,9.73
2019-03-20T13:36:47.001Z,8.30
2019-03-20T13:37:53.900Z,8.30
2019-03-20T13:39:00.299Z,6.87
2019-03-20T13:40:14.630Z,8.37
2019-03-20T13:41:19.127Z,24.60
2019-03-20T13:42:25.828Z,14.67
2019-03-20T13:43:32.367Z,10.97
2019-03-20T13:44:38.771Z,8.10
2019-03-20T13:45:46.050Z,9.90
2019-03-20T13:46:54.538Z,7.60
2019-03-20T13:48:01.920Z,8.67
2019-03-20T13:49:08.389Z,7.57
2019-03-20T13:50:17.822Z,7.17
2019-03-20T13:51:24.237Z,20.17
2019-03-20T13:52:30.579Z,13.03
2019-03-20T13:53:37.412Z,9.77
2019-03-20T13:54:46.660Z,9.20
2019-03-20T13:55:53.119Z,12.40
2019-03-20T13:57:00.701Z,19.33
2019-03-20T13:58:06.814Z,16.67
2019-03-20T13:59:13.389Z,9.27
2019-03-20T14:00:21.763Z,10.13
2019-03-20T14:01:28.394Z,18.47
2019-03-20T14:02:34.579Z,8.93
2019-03-20T14:03:40.710Z,11.03
2019-03-20T14:04:46.832Z,9.57
2019-03-20T14:05:54.047Z,11.40
2019-03-20T14:07:00.100Z,16.13
2019-03-20T14:08:07.028Z,9.53
2019-03-20T14:09:15.554Z,10.47
2019-03-20T14:10:29.458Z,6.47
2019-03-20T14:11:35.660Z,9.27
2019-03-20T14:12:42.230Z,9.93
2019-03-20T14:13:48.530Z,6.43
2019-03-20T14:14:55.133Z,9.83
2019-03-20T14:16:01.500Z,10.73
2019-03-20T14:17:07.980Z,10.47
2019-03-20T14:18:14.900Z,13.57
2019-03-20T14:19:21.991Z,11.70
2019-03-20T14:20:33.263Z,11.83
2019-03-20T14:21:39.638Z,25.27
2019-03-20T14:22:45.744Z,32.13
2019-03-20T14:23:51.990Z,34.10
2019-03-20T14:24:58.131Z,16.53
2019-03-20T14:26:04.641Z,10.17
2019-03-20T14:27:11.950Z,10.93
2019-03-20T14:28:18.431Z,14.87
2019-03-20T14:29:24.812Z,7.77
2019-03-20T14:30:33.762Z,6.00
2019-03-20T14:31:42.417Z,14.00
2019-03-20T14:32:48.913Z,14.87
2019-03-20T14:33:55.548Z,13.07
2019-03-20T14:35:01.924Z,14.20
2019-03-20T14:36:08.561Z,15.23